Time;durP1;ratioP1;P1;durP2;ratioP2;P2;SDS_P1;SDS_P2;PMS_P1;PMS_P2;Temp;Humidity;BMP_temperature;BMP_pressure;BME280_temperature;BME280_humidity;BME280_pressure;Samples;Min_cycle;Max_cycle;Signal;HPM_P1;HPM_P2
2024/01/16 00:01:07;;;;;;;;;;;23.20;99.90;;;;;;5092953;28;19908;-66
2024/01/16 00:03:34;;;;;;;;;;;23.20;99.90;;;;;;5092211;28;19904;-65
2024/01/16 00:06:01;;;;;;;;;;;23.30;99.90;;;;;;5093099;28;19908;-65
2024/01/16 00:08:28;;;;;;;;;;;23.40;99.90;;;;;;5093099;28;19908;-68
2024/01/16 00:10:55;;;;;;;;;;;23.50;99.90;;;;;;5093133;28;19914;-67
2024/01/16 00:13:22;;;;;;;;;;;23.50;99.90;;;;;;5092859;28;19920;-68
2024/01/16 00:15:49;;;;;;;;;;;23.60;99.90;;;;;;5092739;28;19991;-68
2024/01/16 00:18:16;;;;;;;;;;;23.90;99.90;;;;;;5092798;28;20391;-66
2024/01/16 00:20:43;;;;;;;;;;;24.00;99.90;;;;;;5092825;28;19912;-66
2024/01/16 00:23:10;;;;;;;;;;;24.10;99.90;;;;;;5092807;28;19954;-68
2024/01/16 00:25:37;;;;;;;;;;;24.40;99.90;;;;;;5092898;28;19915;-66
2024/01/16 00:28:05;;;;;;;;;;;24.50;99.90;;;;;;5092851;28;19912;-66
2024/01/16 00:30:33;;;;;;;;;;;24.70;99.90;;;;;;5092820;28;19908;-64
2024/01/16 00:33:00;;;;;;;;;;;24.80;99.90;;;;;;5092503;28;19920;-66
2024/01/16 00:35:28;;;;;;;;;;;25.00;99.90;;;;;;5092829;28;19962;-67
2024/01/16 00:37:55;;;;;;;;;;;25.20;99.90;;;;;;5092509;28;19916;-65
2024/01/16 00:40:27;;;;;;;;;;;25.00;99.90;;;;;;5095891;28;20333;-68
2024/01/16 00:42:54;;;;;;;;;;;24.80;99.90;;;;;;5096776;28;19908;-63
2024/01/16 00:45:21;;;;;;;;;;;24.60;99.90;;;;;;5096820;28;19909;-65
2024/01/16 00:47:48;;;;;;;;;;;24.40;99.90;;;;;;5096610;28;19959;-68
2024/01/16 00:50:15;;;;;;;;;;;24.40;99.90;;;;;;5096446;28;19908;-67
2024/01/16 00:52:42;;;;;;;;;;;24.60;99.90;;;;;;5096448;28;20301;-65
2024/01/16 00:55:09;;;;;;;;;;;24.60;99.90;;;;;;5096520;28;20432;-66
2024/01/16 00:57:36;;;;;;;;;;;24.60;99.90;;;;;;5096598;28;20415;-64
2024/01/16 01:00:04;;;;;;;;;;;24.60;99.90;;;;;;5096392;28;19911;-66
2024/01/16 01:02:30;;;;;;;;;;;24.70;99.90;;;;;;5096333;28;19955;-62
2024/01/16 01:04:59;;;;;;;;;;;24.80;99.90;;;;;;5096242;28;19915;-66
2024/01/16 01:07:26;;;;;;;;;;;25.00;99.90;;;;;;5096392;28;20004;-66
2024/01/16 01:09:54;;;;;;;;;;;25.10;99.90;;;;;;5096070;28;19998;-63
2024/01/16 01:12:21;;;;;;;;;;;25.10;99.90;;;;;;5095962;28;19916;-65
2024/01/16 01:14:52;;;;;;;;;;;25.10;99.90;;;;;;5095950;28;19959;-64
2024/01/16 01:17:20;;;;;;;;;;;25.10;99.90;;;;;;5096003;28;19908;-66
2024/01/16 01:19:47;;;;;;;;;;;25.00;99.90;;;;;;5096090;28;19956;-65
2024/01/16 01:22:14;;;;;;;;;;;24.90;99.90;;;;;;5095885;28;19908;-62
2024/01/16 01:24:41;;;;;;;;;;;25.10;99.90;;;;;;5096193;28;19909;-62
2024/01/16 01:27:11;;;;;;;;;;;25.10;99.90;;;;;;5096034;28;19908;-63
2024/01/16 01:29:39;;;;;;;;;;;25.00;99.90;;;;;;5096189;28;19912;-62
2024/01/16 01:32:07;;;;;;;;;;;24.70;99.90;;;;;;5095959;28;19912;-61
2024/01/16 01:34:35;;;;;;;;;;;24.60;99.90;;;;;;5095693;28;19987;-64
2024/01/16 01:37:04;;;;;;;;;;;24.50;99.90;;;;;;5077469;28;19908;-63
2024/01/16 01:39:31;;;;;;;;;;;24.30;99.90;;;;;;5077645;28;19912;-67
2024/01/16 01:41:59;;;;;;;;;;;24.10;99.90;;;;;;5095728;28;19947;-66
2024/01/16 01:44:30;;;;;;;;;;;24.00;99.90;;;;;;5077690;28;19912;-67
2024/01/16 01:46:58;;;;;;;;;;;24.00;99.90;;;;;;5095409;28;19908;-63
2024/01/16 01:49:26;;;;;;;;;;;24.00;99.90;;;;;;5077193;28;19935;-69
2024/01/16 01:52:00;;;;;;;;;;;23.90;99.90;;;;;;5094168;28;20273;-64
2024/01/16 01:54:28;;;;;;;;;;;23.80;99.90;;;;;;5095291;28;19915;-67
2024/01/16 01:56:55;;;;;;;;;;;23.80;99.90;;;;;;5095522;28;19960;-65
2024/01/16 01:59:26;;;;;;;;;;;23.70;99.90;;;;;;5095090;28;20285;-65
2024/01/16 02:01:54;;;;;;;;;;;23.50;99.90;;;;;;5076948;28;19915;-62
2024/01/16 02:04:22;;;;;;;;;;;23.50;99.90;;;;;;5093239;28;19908;-62
2024/01/16 02:06:50;;;;;;;;;;;23.50;99.90;;;;;;5094801;28;19930;-68
2024/01/16 02:09:17;;;;;;;;;;;23.50;99.90;;;;;;5095085;28;19908;-62
2024/01/16 02:11:44;;;;;;;;;;;23.60;99.90;;;;;;5094914;28;20379;-66
2024/01/16 02:14:12;;;;;;;;;;;23.90;99.90;;;;;;5094916;28;19918;-63
2024/01/16 02:16:44;;;;;;;;;;;24.00;99.90;;;;;;5094850;28;19947;-65
2024/01/16 02:19:16;;;;;;;;;;;24.40;99.90;;;;;;5094526;28;19908;-63
2024/01/16 02:21:49;;;;;;;;;;;24.90;99.90;;;;;;5094517;28;20369;-67
2024/01/16 02:24:18;;;;;;;;;;;25.50;99.90;;;;;;5094640;28;20007;-66
2024/01/16 02:26:45;;;;;;;;;;;26.20;99.90;;;;;;5094897;28;19909;-66
2024/01/16 02:29:13;;;;;;;;;;;26.80;99.90;;;;;;5093585;28;19912;-66
2024/01/16 02:31:40;;;;;;;;;;;27.10;99.90;;;;;;5094367;28;19959;-66
2024/01/16 02:34:07;;;;;;;;;;;27.40;99.90;;;;;;5094179;28;19916;-62
2024/01/16 02:36:34;;;;;;;;;;;27.60;99.90;;;;;;5094705;28;19908;-66
2024/01/16 02:39:02;;;;;;;;;;;27.90;99.90;;;;;;5094695;28;19908;-62
2024/01/16 02:41:30;;;;;;;;;;;28.10;99.90;;;;;;5094330;28;19940;-63
2024/01/16 02:43:57;;;;;;;;;;;28.50;99.90;;;;;;5094148;28;19912;-65
2024/01/16 02:46:25;;;;;;;;;;;28.90;99.90;;;;;;5094623;28;19907;-65
2024/01/16 02:48:53;;;;;;;;;;;29.30;99.90;;;;;;5076683;28;19973;-67
2024/01/16 02:51:20;;;;;;;;;;;29.70;99.90;;;;;;5094192;28;19931;-63
2024/01/16 02:53:47;;;;;;;;;;;29.40;99.90;;;;;;5099845;28;19916;-64
2024/01/16 02:56:14;;;;;;;;;;;29.20;99.90;;;;;;5100728;28;20318;-67
2024/01/16 02:58:41;;;;;;;;;;;28.80;99.90;;;;;;5083894;28;20337;-64
2024/01/16 03:01:09;;;;;;;;;;;28.50;99.90;;;;;;5079749;28;19926;-69
2024/01/16 03:03:40;;;;;;;;;;;28.40;99.90;;;;;;5099242;28;19951;-62
2024/01/16 03:06:07;;;;;;;;;;;28.20;99.90;;;;;;5096675;28;19992;-67
2024/01/16 03:08:34;;;;;;;;;;;28.10;99.90;;;;;;5112114;27;20283;-68
2024/01/16 03:11:01;;;;;;;;;;;27.50;99.90;;;;;;5098934;27;20262;-68
2024/01/16 03:13:28;;;;;;;;;;;27.40;99.90;;;;;;5108492;27;19937;-67
2024/01/16 03:15:55;;;;;;;;;;;27.30;99.90;;;;;;5105840;27;20373;-63
2024/01/16 03:18:24;;;;;;;;;;;27.40;99.90;;;;;;5103691;27;20386;-65
2024/01/16 03:20:51;;;;;;;;;;;27.80;99.90;;;;;;5088924;28;20034;-66
2024/01/16 03:23:21;;;;;;;;;;;27.90;99.90;;;;;;5111879;27;19908;-65
2024/01/16 03:25:48;;;;;;;;;;;28.20;99.90;;;;;;5100907;28;19924;-66
2024/01/16 03:28:15;;;;;;;;;;;28.30;99.90;;;;;;5107430;28;20390;-65
2024/01/16 03:30:42;;;;;;;;;;;27.90;99.90;;;;;;5108434;27;20011;-61
2024/01/16 03:33:10;;;;;;;;;;;27.80;99.90;;;;;;5100529;28;19924;-66
2024/01/16 03:35:37;;;;;;;;;;;27.40;99.90;;;;;;5107698;28;19920;-64
2024/01/16 03:38:04;;;;;;;;;;;27.10;99.90;;;;;;5103488;28;20346;-64
2024/01/16 03:40:34;;;;;;;;;;;26.80;99.90;;;;;;5108491;28;19929;-68
2024/01/16 03:43:02;;;;;;;;;;;26.70;99.90;;;;;;5107348;28;19995;-67
2024/01/16 03:45:29;;;;;;;;;;;26.40;99.90;;;;;;5099140;28;19912;-65
2024/01/16 03:47:56;;;;;;;;;;;26.20;99.90;;;;;;5100700;28;20257;-66
2024/01/16 03:50:25;;;;;;;;;;;25.90;99.90;;;;;;5102965;28;19998;-67
2024/01/16 03:52:52;;;;;;;;;;;25.90;99.90;;;;;;5110560;28;19935;-66
2024/01/16 03:55:19;;;;;;;;;;;25.70;99.90;;;;;;5111662;28;19916;-63
2024/01/16 03:57:46;;;;;;;;;;;25.60;99.90;;;;;;5110781;28;19907;-66
2024/01/16 04:00:14;;;;;;;;;;;25.60;99.90;;;;;;5102844;28;19920;-65
2024/01/16 04:02:41;;;;;;;;;;;25.60;99.90;;;;;;5106894;28;19918;-63
2024/01/16 04:05:08;;;;;;;;;;;25.70;99.90;;;;;;5104050;28;19908;-65
2024/01/16 04:07:39;;;;;;;;;;;25.80;99.90;;;;;;5106043;28;19912;-65
2024/01/16 04:10:07;;;;;;;;;;;25.60;99.90;;;;;;5111123;28;19912;-68
2024/01/16 04:12:33;;;;;;;;;;;25.70;99.90;;;;;;5105910;28;19911;-66
2024/01/16 04:15:00;;;;;;;;;;;25.70;99.90;;;;;;5108584;28;20429;-68
2024/01/16 04:17:27;;;;;;;;;;;25.60;99.90;;;;;;5106250;28;20041;-64
2024/01/16 04:19:56;;;;;;;;;;;25.60;99.90;;;;;;5109868;28;20020;-66
2024/01/16 04:22:23;;;;;;;;;;;25.60;99.90;;;;;;5103013;28;20361;-66
2024/01/16 04:24:50;;;;;;;;;;;25.80;99.90;;;;;;5103132;28;19915;-65
2024/01/16 04:27:18;;;;;;;;;;;25.90;99.90;;;;;;5107505;28;19918;-64
2024/01/16 04:29:45;;;;;;;;;;;26.10;99.90;;;;;;5103295;28;19920;-62
2024/01/16 04:32:13;;;;;;;;;;;26.20;99.90;;;;;;5111037;28;20360;-67
2024/01/16 04:34:40;;;;;;;;;;;26.30;99.90;;;;;;5101751;28;19921;-67
2024/01/16 04:37:06;;;;;;;;;;;26.70;99.90;;;;;;5104957;28;19925;-65
2024/01/16 04:39:33;;;;;;;;;;;27.60;99.90;;;;;;5109173;28;20372;-66
2024/01/16 04:42:00;;;;;;;;;;;28.30;99.90;;;;;;5104908;28;19912;-63
2024/01/16 04:44:27;;;;;;;;;;;28.70;99.90;;;;;;5110826;28;19912;-67
2024/01/16 04:46:53;;;;;;;;;;;28.80;99.90;;;;;;5103029;28;20468;-64
2024/01/16 04:49:20;;;;;;;;;;;28.80;99.90;;;;;;5107952;28;19911;-67
2024/01/16 04:51:47;;;;;;;;;;;28.80;99.90;;;;;;5109530;28;20432;-67
2024/01/16 04:54:17;;;;;;;;;;;28.40;99.90;;;;;;5110696;28;20048;-62
2024/01/16 04:56:44;;;;;;;;;;;28.10;99.90;;;;;;5110490;28;19927;-64
2024/01/16 04:59:10;;;;;;;;;;;27.90;99.90;;;;;;5104657;28;19919;-63
2024/01/16 05:01:37;;;;;;;;;;;27.70;99.90;;;;;;5106011;28;19908;-62
2024/01/16 05:04:04;;;;;;;;;;;27.50;99.90;;;;;;5104117;28;20272;-63
2024/01/16 05:06:30;;;;;;;;;;;27.40;99.90;;;;;;5108925;28;19947;-63
2024/01/16 05:08:57;;;;;;;;;;;27.20;99.90;;;;;;5106303;28;19916;-65
2024/01/16 05:11:23;;;;;;;;;;;27.00;99.90;;;;;;5104532;28;19935;-66
2024/01/16 05:13:56;;;;;;;;;;;26.90;99.90;;;;;;5109719;28;19971;-68
2024/01/16 05:16:26;;;;;;;;;;;26.70;99.90;;;;;;5105883;28;19965;-65
2024/01/16 05:18:53;;;;;;;;;;;26.50;99.90;;;;;;5109142;28;19911;-71
2024/01/16 05:21:20;;;;;;;;;;;26.40;99.90;;;;;;5110435;28;19926;-65
2024/01/16 05:23:47;;;;;;;;;;;26.40;99.90;;;;;;5108733;28;19916;-70
2024/01/16 05:26:14;;;;;;;;;;;26.40;99.90;;;;;;5114482;28;20022;-65
2024/01/16 05:28:40;;;;;;;;;;;26.40;99.90;;;;;;5110464;28;19919;-64
2024/01/16 05:31:07;;;;;;;;;;;26.30;99.90;;;;;;5109600;28;19956;-63
2024/01/16 05:33:34;;;;;;;;;;;26.10;99.90;;;;;;5108681;28;20398;-66
2024/01/16 05:36:01;;;;;;;;;;;25.90;99.90;;;;;;5110631;27;19944;-67
2024/01/16 05:38:27;;;;;;;;;;;25.80;99.90;;;;;;5104427;28;19939;-64
2024/01/16 05:40:54;;;;;;;;;;;25.50;99.90;;;;;;5109487;28;19919;-65
2024/01/16 05:43:21;;;;;;;;;;;25.30;99.90;;;;;;5106824;28;19908;-68
2024/01/16 05:45:47;;;;;;;;;;;25.10;99.90;;;;;;5103126;28;20304;-65
2024/01/16 05:48:14;;;;;;;;;;;25.10;99.90;;;;;;5094720;28;19909;-64
2024/01/16 05:50:41;;;;;;;;;;;24.90;99.90;;;;;;5098314;28;20361;-64
2024/01/16 05:53:08;;;;;;;;;;;24.90;99.90;;;;;;5097412;28;19920;-63
2024/01/16 05:55:36;;;;;;;;;;;24.90;99.90;;;;;;5106430;28;19920;-65
2024/01/16 05:58:03;;;;;;;;;;;24.80;99.90;;;;;;5109687;28;19912;-67
2024/01/16 06:00:30;;;;;;;;;;;25.00;99.90;;;;;;5111351;28;19916;-63
2024/01/16 06:02:56;;;;;;;;;;;25.00;99.90;;;;;;5097984;28;19912;-67
2024/01/16 06:05:24;;;;;;;;;;;25.10;99.90;;;;;;5099284;28;19915;-63
2024/01/16 06:07:51;;;;;;;;;;;25.30;99.90;;;;;;5105060;28;19973;-69
2024/01/16 06:10:17;;;;;;;;;;;25.40;99.90;;;;;;5108029;28;20010;-63
2024/01/16 06:12:44;;;;;;;;;;;25.50;99.90;;;;;;5111392;28;19916;-67
2024/01/16 06:15:13;;;;;;;;;;;25.70;99.90;;;;;;5106480;28;19911;-63
2024/01/16 06:17:40;;;;;;;;;;;25.80;99.90;;;;;;5106246;28;20338;-63
2024/01/16 06:20:07;;;;;;;;;;;25.80;99.90;;;;;;5109930;28;19996;-68
2024/01/16 06:22:34;;;;;;;;;;;25.90;99.90;;;;;;5106914;28;19919;-64
2024/01/16 06:25:02;;;;;;;;;;;25.80;99.90;;;;;;5111852;28;19908;-65
2024/01/16 06:27:28;;;;;;;;;;;25.90;99.90;;;;;;5109472;28;19912;-67
2024/01/16 06:29:55;;;;;;;;;;;26.10;99.90;;;;;;5113387;28;19933;-62
2024/01/16 06:32:21;;;;;;;;;;;26.10;99.90;;;;;;5112698;28;19912;-65
2024/01/16 06:34:48;;;;;;;;;;;26.10;99.90;;;;;;5111068;28;19913;-69
2024/01/16 06:37:15;;;;;;;;;;;26.30;99.90;;;;;;5101875;28;20287;-65
2024/01/16 06:39:41;;;;;;;;;;;26.30;99.90;;;;;;5112202;28;19986;-67
2024/01/16 06:42:08;;;;;;;;;;;26.50;99.90;;;;;;5107844;28;19950;-65
2024/01/16 06:44:35;;;;;;;;;;;26.40;99.90;;;;;;5110817;28;19911;-65
2024/01/16 06:47:02;;;;;;;;;;;26.60;99.90;;;;;;5107123;28;19916;-68
2024/01/16 06:49:28;;;;;;;;;;;26.60;99.90;;;;;;5099324;28;20551;-67
2024/01/16 06:51:57;;;;;;;;;;;26.60;99.90;;;;;;5112478;28;19907;-66
2024/01/16 06:54:23;;;;;;;;;;;26.60;99.90;;;;;;5112192;28;19908;-66
2024/01/16 06:56:50;;;;;;;;;;;26.50;99.90;;;;;;5108646;28;19923;-66
2024/01/16 06:59:19;;;;;;;;;;;26.60;99.90;;;;;;5109086;28;20548;-64
2024/01/16 07:01:45;;;;;;;;;;;26.70;99.90;;;;;;5111471;28;19908;-69
2024/01/16 07:04:14;;;;;;;;;;;26.70;99.90;;;;;;5112265;28;19920;-62
2024/01/16 07:06:41;;;;;;;;;;;26.80;99.90;;;;;;5110644;28;19912;-67
2024/01/16 07:09:10;;;;;;;;;;;26.90;99.90;;;;;;5111879;28;20276;-69
2024/01/16 07:11:38;;;;;;;;;;;27.00;99.90;;;;;;5110449;28;20360;-64
2024/01/16 07:14:04;;;;;;;;;;;27.30;99.90;;;;;;5110555;28;19963;-70
2024/01/16 07:16:31;;;;;;;;;;;27.30;99.90;;;;;;5110699;28;19957;-65
2024/01/16 07:18:57;;;;;;;;;;;27.20;99.90;;;;;;5109407;28;19912;-68
2024/01/16 07:21:24;;;;;;;;;;;27.00;99.90;;;;;;5110373;28;20000;-68
2024/01/16 07:23:51;;;;;;;;;;;27.00;99.90;;;;;;5106680;28;20258;-65
2024/01/16 07:26:17;;;;;;;;;;;26.80;99.90;;;;;;5109633;28;19915;-66
2024/01/16 07:28:44;;;;;;;;;;;26.60;99.90;;;;;;5108493;28;20321;-64
2024/01/16 07:31:11;;;;;;;;;;;26.40;99.90;;;;;;5108713;28;19912;-66
2024/01/16 07:33:38;;;;;;;;;;;26.10;99.90;;;;;;5108566;28;19923;-65
2024/01/16 07:36:05;;;;;;;;;;;26.00;99.90;;;;;;5102053;28;19912;-68
2024/01/16 07:38:32;;;;;;;;;;;25.80;99.90;;;;;;5096129;28;19912;-65
2024/01/16 07:40:58;;;;;;;;;;;25.70;99.90;;;;;;5102789;28;19908;-68
2024/01/16 07:43:25;;;;;;;;;;;25.50;99.90;;;;;;5106464;28;20352;-69
2024/01/16 07:45:52;;;;;;;;;;;25.50;99.90;;;;;;5111431;28;20002;-68
2024/01/16 07:48:18;;;;;;;;;;;25.40;99.90;;;;;;5111343;28;19912;-66
2024/01/16 07:50:45;;;;;;;;;;;25.30;99.90;;;;;;5112862;28;20375;-67
2024/01/16 07:53:12;;;;;;;;;;;25.20;99.90;;;;;;5113322;28;19924;-68
2024/01/16 07:55:39;;;;;;;;;;;25.10;99.90;;;;;;5113631;28;20372;-68
2024/01/16 07:58:06;;;;;;;;;;;25.10;99.90;;;;;;5113436;28;19908;-68
2024/01/16 08:00:32;;;;;;;;;;;25.10;99.90;;;;;;5113365;28;19908;-68
2024/01/16 08:02:59;;;;;;;;;;;25.10;99.90;;;;;;5111483;28;20276;-68
2024/01/16 08:05:27;;;;;;;;;;;25.10;99.90;;;;;;5113416;28;19908;-67
2024/01/16 08:07:54;;;;;;;;;;;25.10;99.90;;;;;;5112705;28;19965;-65
2024/01/16 08:10:21;;;;;;;;;;;25.00;99.90;;;;;;5113210;28;19944;-66
2024/01/16 08:12:47;;;;;;;;;;;25.00;99.90;;;;;;5112825;28;20364;-67
2024/01/16 08:15:14;;;;;;;;;;;25.00;99.90;;;;;;5113055;28;19953;-66
2024/01/16 08:17:41;;;;;;;;;;;25.00;99.90;;;;;;5113390;28;19929;-64
2024/01/16 08:20:11;;;;;;;;;;;25.10;99.90;;;;;;5113299;28;19908;-70
2024/01/16 08:22:38;;;;;;;;;;;25.00;99.90;;;;;;5113109;28;19930;-66
2024/01/16 08:25:08;;;;;;;;;;;24.90;99.90;;;;;;5113192;28;20013;-67
2024/01/16 08:27:37;;;;;;;;;;;24.80;99.90;;;;;;5113316;28;20352;-69
2024/01/16 08:30:05;;;;;;;;;;;24.70;99.90;;;;;;5113367;28;19916;-70
2024/01/16 08:32:32;;;;;;;;;;;24.70;99.90;;;;;;5113296;28;19926;-69
2024/01/16 08:34:58;;;;;;;;;;;24.70;99.90;;;;;;5113198;28;19944;-64
2024/01/16 08:37:25;;;;;;;;;;;24.60;99.90;;;;;;5113026;28;20738;-64
2024/01/16 08:39:52;;;;;;;;;;;24.60;99.90;;;;;;5113018;28;19911;-68
2024/01/16 08:42:18;;;;;;;;;;;24.50;99.90;;;;;;5113003;28;19957;-69
2024/01/16 08:44:45;;;;;;;;;;;24.40;99.90;;;;;;5113005;28;19908;-64
2024/01/16 08:47:12;;;;;;;;;;;24.40;99.90;;;;;;5113094;28;19911;-66
2024/01/16 08:49:39;;;;;;;;;;;24.30;99.90;;;;;;5113033;28;19953;-67
2024/01/16 08:52:06;;;;;;;;;;;24.30;99.90;;;;;;5113115;28;19930;-68
2024/01/16 08:54:33;;;;;;;;;;;24.30;99.90;;;;;;5113058;28;20291;-69
2024/01/16 08:56:59;;;;;;;;;;;24.30;99.90;;;;;;5112988;28;19912;-67
2024/01/16 08:59:26;;;;;;;;;;;24.20;99.90;;;;;;5112860;28;20283;-69
2024/01/16 09:01:53;;;;;;;;;;;24.10;99.90;;;;;;5116913;28;19912;-65
2024/01/16 09:04:19;;;;;;;;;;;24.10;99.90;;;;;;5116848;28;19908;-66
2024/01/16 09:06:46;;;;;;;;;;;24.00;99.90;;;;;;5116922;28;19914;-67
2024/01/16 09:09:12;;;;;;;;;;;24.00;99.90;;;;;;5116766;28;20367;-64
2024/01/16 09:11:39;;;;;;;;;;;24.00;99.90;;;;;;5116716;28;19908;-63
2024/01/16 09:14:06;;;;;;;;;;;24.00;99.90;;;;;;5116805;28;19923;-63
2024/01/16 09:16:32;;;;;;;;;;;24.00;99.90;;;;;;5116653;28;19953;-66
2024/01/16 09:18:59;;;;;;;;;;;24.00;99.90;;;;;;5116335;28;19918;-63
2024/01/16 09:21:25;;;;;;;;;;;24.00;99.90;;;;;;5116515;28;19912;-67
2024/01/16 09:23:52;;;;;;;;;;;24.00;99.90;;;;;;5116423;28;20364;-66
2024/01/16 09:26:19;;;;;;;;;;;24.00;99.90;;;;;;5116226;28;19908;-64
2024/01/16 09:28:46;;;;;;;;;;;24.00;99.90;;;;;;5116203;28;19912;-63
2024/01/16 09:31:12;;;;;;;;;;;24.00;99.90;;;;;;5116450;28;19919;-68
2024/01/16 09:33:39;;;;;;;;;;;24.00;99.90;;;;;;5116367;28;19916;-62
2024/01/16 09:36:06;;;;;;;;;;;23.90;99.90;;;;;;5116315;28;19908;-63
2024/01/16 09:38:32;;;;;;;;;;;24.00;99.90;;;;;;5115862;28;19954;-63
2024/01/16 09:40:59;;;;;;;;;;;23.90;99.90;;;;;;5116148;28;19908;-63
2024/01/16 09:43:27;;;;;;;;;;;23.90;99.90;;;;;;5116271;28;19915;-65
2024/01/16 09:45:55;;;;;;;;;;;23.90;99.90;;;;;;5116545;28;19907;-68
2024/01/16 09:48:23;;;;;;;;;;;23.90;99.90;;;;;;5115816;28;19957;-66
2024/01/16 09:50:50;;;;;;;;;;;23.90;99.90;;;;;;5115847;28;20008;-63
2024/01/16 09:53:16;;;;;;;;;;;23.90;99.90;;;;;;5115789;28;20209;-67
2024/01/16 09:55:43;;;;;;;;;;;23.90;99.90;;;;;;5115799;28;19972;-67
2024/01/16 09:58:14;;;;;;;;;;;23.80;99.90;;;;;;5115937;28;19953;-64
2024/01/16 10:00:43;;;;;;;;;;;23.80;99.90;;;;;;5114465;28;19969;-66
2024/01/16 10:03:12;;;;;;;;;;;23.70;99.90;;;;;;5115740;28;19908;-67
2024/01/16 10:05:41;;;;;;;;;;;23.70;99.90;;;;;;5115754;28;19914;-68
2024/01/16 10:08:07;;;;;;;;;;;23.60;99.90;;;;;;5115762;28;19999;-67
2024/01/16 10:10:34;;;;;;;;;;;23.60;99.90;;;;;;5115286;28;20280;-66
2024/01/16 10:13:01;;;;;;;;;;;23.60;99.90;;;;;;5114327;28;19916;-69
2024/01/16 10:15:28;;;;;;;;;;;23.60;99.90;;;;;;5115317;28;19908;-69
2024/01/16 10:17:55;;;;;;;;;;;23.60;99.90;;;;;;5115407;28;19915;-64
2024/01/16 10:20:42;;;;;;;;;;;23.60;99.90;;;;;;5115412;28;19908;-64
2024/01/16 10:23:08;;;;;;;;;;;23.60;99.90;;;;;;5114825;28;20364;-69
2024/01/16 10:25:37;;;;;;;;;;;23.70;99.90;;;;;;5114922;28;19908;-67
2024/01/16 10:28:05;;;;;;;;;;;23.60;99.90;;;;;;5115190;28;20321;-69
2024/01/16 10:30:32;;;;;;;;;;;23.60;99.90;;;;;;5115105;28;19908;-69
2024/01/16 10:33:12;;;;;;;;;;;23.60;99.90;;;;;;5115104;28;20014;-69
2024/01/16 10:35:39;;;;;;;;;;;23.50;99.90;;;;;;5114923;28;19908;-68
2024/01/16 10:38:06;;;;;;;;;;;23.50;99.90;;;;;;5115094;28;19908;-67
2024/01/16 10:40:34;;;;;;;;;;;23.50;99.90;;;;;;5114850;28;19912;-68
2024/01/16 10:43:02;;;;;;;;;;;23.50;99.90;;;;;;5114710;28;20010;-67
2024/01/16 10:45:28;;;;;;;;;;;23.50;99.90;;;;;;5114914;28;19915;-65
2024/01/16 10:48:02;;;;;;;;;;;23.50;99.90;;;;;;5114915;28;19908;-63
2024/01/16 10:50:29;;;;;;;;;;;23.50;99.90;;;;;;5115031;28;20272;-66
2024/01/16 10:52:58;;;;;;;;;;;23.50;99.90;;;;;;5114563;28;20053;-67
2024/01/16 10:55:25;;;;;;;;;;;23.50;99.90;;;;;;5114602;28;19995;-62
2024/01/16 10:57:51;;;;;;;;;;;23.50;99.90;;;;;;5114729;28;19915;-67
2024/01/16 11:00:19;;;;;;;;;;;23.40;99.90;;;;;;5114879;28;20353;-66
2024/01/16 11:02:51;;;;;;;;;;;23.50;99.90;;;;;;5114629;28;20352;-67
2024/01/16 11:05:18;;;;;;;;;;;23.40;99.90;;;;;;5114377;28;20018;-66
2024/01/16 11:07:45;;;;;;;;;;;23.40;99.90;;;;;;5114438;28;19977;-66
2024/01/16 11:10:12;;;;;;;;;;;23.50;99.90;;;;;;5114498;28;20210;-65
2024/01/16 11:12:42;;;;;;;;;;;23.50;99.90;;;;;;5114167;28;19916;-64
2024/01/16 11:15:12;;;;;;;;;;;23.50;99.90;;;;;;5114167;28;19969;-64
2024/01/16 11:17:39;;;;;;;;;;;23.50;99.90;;;;;;5114167;28;19935;-67
2024/01/16 11:20:10;;;;;;;;;;;23.50;99.90;;;;;;5114059;28;20391;-64
2024/01/16 11:22:40;;;;;;;;;;;23.50;99.90;;;;;;5113992;28;19908;-68
2024/01/16 11:25:14;;;;;;;;;;;23.50;99.90;;;;;;5108148;28;20485;-67
2024/01/16 11:27:41;;;;;;;;;;;23.50;99.90;;;;;;5093914;28;20010;-68
2024/01/16 11:30:12;;;;;;;;;;;23.50;99.90;;;;;;5099552;28;19916;-66
2024/01/16 11:32:41;;;;;;;;;;;23.60;99.90;;;;;;5088668;28;19916;-68
2024/01/16 11:35:09;;;;;;;;;;;23.50;99.90;;;;;;5113446;28;19999;-68
2024/01/16 11:37:37;;;;;;;;;;;23.50;99.90;;;;;;5098620;28;20361;-68
2024/01/16 11:40:22;;;;;;;;;;;23.50;99.90;;;;;;5109452;28;19937;-69
2024/01/16 11:42:50;;;;;;;;;;;23.50;99.90;;;;;;5101884;28;19931;-68
2024/01/16 11:45:31;;;;;;;;;;;23.50;99.90;;;;;;5093130;28;19912;-67
2024/01/16 11:48:10;;;;;;;;;;;23.50;99.90;;;;;;5110087;28;20293;-65
2024/01/16 11:50:37;;;;;;;;;;;23.50;99.90;;;;;;5111886;28;19959;-66
2024/01/16 11:53:07;;;;;;;;;;;23.40;99.90;;;;;;5092973;28;19916;-66
2024/01/16 11:55:37;;;;;;;;;;;23.40;99.90;;;;;;5092890;28;19924;-67
2024/01/16 11:58:22;;;;;;;;;;;23.40;99.90;;;;;;5109812;28;19911;-67
2024/01/16 12:00:52;;;;;;;;;;;23.40;99.90;;;;;;5113302;28;19915;-67
2024/01/16 12:03:21;;;;;;;;;;;23.40;99.90;;;;;;5112702;28;20410;-66
2024/01/16 12:06:00;;;;;;;;;;;23.40;99.90;;;;;;5113104;28;19908;-66
2024/01/16 12:08:28;;;;;;;;;;;23.40;99.90;;;;;;5092920;28;19912;-63
2024/01/16 12:10:54;;;;;;;;;;;23.40;99.90;;;;;;5092853;28;19912;-65
2024/01/16 12:13:21;;;;;;;;;;;23.40;99.90;;;;;;5092407;28;19916;-62
2024/01/16 12:15:48;;;;;;;;;;;23.40;99.90;;;;;;5092754;28;19908;-68
2024/01/16 12:18:20;;;;;;;;;;;23.40;99.90;;;;;;5092785;28;20357;-66
2024/01/16 12:20:47;;;;;;;;;;;23.30;99.90;;;;;;5074338;28;19908;-65
2024/01/16 12:23:14;;;;;;;;;;;23.30;99.90;;;;;;5092381;28;19908;-69
2024/01/16 12:25:40;;;;;;;;;;;23.40;99.90;;;;;;5092339;28;19909;-62
2024/01/16 12:28:10;;;;;;;;;;;23.40;99.90;;;;;;5092407;28;19918;-67
2024/01/16 12:30:37;;;;;;;;;;;23.40;99.90;;;;;;5092535;28;19914;-62
2024/01/16 12:33:08;;;;;;;;;;;23.40;99.90;;;;;;5092322;28;19920;-65
2024/01/16 12:35:38;;;;;;;;;;;23.40;99.90;;;;;;5094400;28;19909;-66
2024/01/16 12:38:06;;;;;;;;;;;23.40;99.90;;;;;;5096625;28;19919;-68
2024/01/16 12:40:33;;;;;;;;;;;23.40;99.90;;;;;;5096572;28;19954;-63
2024/01/16 12:43:00;;;;;;;;;;;23.40;99.90;;;;;;5096468;28;19962;-68
2024/01/16 12:45:28;;;;;;;;;;;23.40;99.90;;;;;;5096683;28;19943;-69
2024/01/16 12:47:58;;;;;;;;;;;23.40;99.90;;;;;;5096090;28;20010;-65
2024/01/16 12:50:29;;;;;;;;;;;23.40;99.90;;;;;;5096616;28;19999;-63
2024/01/16 12:53:02;;;;;;;;;;;23.40;99.90;;;;;;5096237;28;19924;-66
2024/01/16 12:55:29;;;;;;;;;;;23.40;99.90;;;;;;5096434;28;19946;-64
2024/01/16 12:58:15;;;;;;;;;;;23.40;99.90;;;;;;5095935;28;19912;-66
2024/01/16 13:00:42;;;;;;;;;;;23.50;99.90;;;;;;5096334;28;19912;-68
2024/01/16 13:03:15;;;;;;;;;;;23.40;99.90;;;;;;5096240;28;19946;-67
2024/01/16 13:05:42;;;;;;;;;;;23.40;99.90;;;;;;5096205;28;20003;-66
2024/01/16 13:08:08;;;;;;;;;;;23.50;99.90;;;;;;5097480;28;19913;-64
2024/01/16 13:10:35;;;;;;;;;;;23.50;99.90;;;;;;5096027;28;19920;-63
2024/01/16 13:13:15;;;;;;;;;;;23.50;99.90;;;;;;5095993;28;20481;-66
2024/01/16 13:15:43;;;;;;;;;;;23.50;99.90;;;;;;5095892;28;20535;-64
2024/01/16 13:18:20;;;;;;;;;;;23.50;99.90;;;;;;5095861;28;20389;-67
2024/01/16 13:20:47;;;;;;;;;;;23.50;99.90;;;;;;5095597;28;19919;-67
2024/01/16 13:23:16;;;;;;;;;;;23.50;99.90;;;;;;5096007;28;19912;-62
2024/01/16 13:25:44;;;;;;;;;;;23.50;99.90;;;;;;5095891;28;19919;-68
2024/01/16 13:28:18;;;;;;;;;;;23.50;99.90;;;;;;5095701;28;19912;-68
2024/01/16 13:30:47;;;;;;;;;;;23.50;99.90;;;;;;5095763;28;19916;-67
2024/01/16 13:33:14;;;;;;;;;;;23.50;99.90;;;;;;5095683;28;19923;-65
2024/01/16 13:35:44;;;;;;;;;;;23.50;99.90;;;;;;5095729;28;19908;-66
2024/01/16 13:38:12;;;;;;;;;;;23.50;99.90;;;;;;5095650;28;19916;-63
2024/01/16 13:40:39;;;;;;;;;;;23.50;99.90;;;;;;5095451;28;19974;-62
2024/01/16 13:43:08;;;;;;;;;;;23.40;99.90;;;;;;5095456;28;19912;-68
2024/01/16 13:45:35;;;;;;;;;;;23.50;99.90;;;;;;5095439;28;19912;-64
2024/01/16 13:48:02;;;;;;;;;;;23.40;99.90;;;;;;5094031;28;19912;-64
2024/01/16 13:50:29;;;;;;;;;;;23.40;99.90;;;;;;5095629;28;20373;-62
2024/01/16 13:52:56;;;;;;;;;;;23.30;99.90;;;;;;5077170;28;20376;-67
2024/01/16 13:55:23;;;;;;;;;;;23.20;99.90;;;;;;5095486;28;20347;-65
2024/01/16 13:57:50;;;;;;;;;;;23.10;99.90;;;;;;5095307;28;19916;-66
2024/01/16 14:00:17;;;;;;;;;;;23.10;99.90;;;;;;5095146;28;19908;-65
2024/01/16 14:02:45;;;;;;;;;;;23.10;99.90;;;;;;5094905;28;19955;-61
2024/01/16 14:05:15;;;;;;;;;;;23.10;99.90;;;;;;5095120;28;19908;-67
2024/01/16 14:07:42;;;;;;;;;;;23.10;99.90;;;;;;5095352;28;19912;-62
2024/01/16 14:10:12;;;;;;;;;;;23.00;99.90;;;;;;5095241;28;19911;-62
2024/01/16 14:12:42;;;;;;;;;;;23.00;99.90;;;;;;5094772;28;20357;-67
2024/01/16 14:15:16;;;;;;;;;;;23.00;99.90;;;;;;5095029;28;20290;-67
2024/01/16 14:17:49;;;;;;;;;;;23.00;99.90;;;;;;5109685;28;19919;-66
2024/01/16 14:20:16;;;;;;;;;;;23.00;99.90;;;;;;5115205;28;19915;-66